sensor_id;sensor_type;location;lat;lon;timestamp;temperature;humidity
72206;DHT22;60111;48.286;7.812;2023-02-11T00:00:32;1.20;64.30
72206;DHT22;60111;48.286;7.812;2023-02-11T00:03:04;1.00;64.70
72206;DHT22;60111;48.286;7.812;2023-02-11T00:05:37;0.90;65.00
72206;DHT22;60111;48.286;7.812;2023-02-11T00:08:09;0.80;65.60
72206;DHT22;60111;48.286;7.812;2023-02-11T00:10:43;0.70;65.90
72206;DHT22;60111;48.286;7.812;2023-02-11T00:13:16;0.80;65.60
72206;DHT22;60111;48.286;7.812;2023-02-11T00:15:49;0.60;66.00
72206;DHT22;60111;48.286;7.812;2023-02-11T00:18:22;0.50;66.10
72206;DHT22;60111;48.286;7.812;2023-02-11T00:20:54;0.50;66.00
72206;DHT22;60111;48.286;7.812;2023-02-11T00:23:27;0.40;67.00
72206;DHT22;60111;48.286;7.812;2023-02-11T00:26:00;0.30;67.90
72206;DHT22;60111;48.286;7.812;2023-02-11T00:28:32;0.30;68.00
72206;DHT22;60111;48.286;7.812;2023-02-11T00:31:05;0.40;67.50
72206;DHT22;60111;48.286;7.812;2023-02-11T00:33:45;0.30;67.70
72206;DHT22;60111;48.286;7.812;2023-02-11T00:36:21;0.20;68.10
72206;DHT22;60111;48.286;7.812;2023-02-11T00:38:54;0.20;68.40
72206;DHT22;60111;48.286;7.812;2023-02-11T00:41:28;0.30;68.40
72206;DHT22;60111;48.286;7.812;2023-02-11T00:44:01;0.40;68.30
72206;DHT22;60111;48.286;7.812;2023-02-11T00:46:34;0.50;68.10
72206;DHT22;60111;48.286;7.812;2023-02-11T00:49:07;0.60;67.30
72206;DHT22;60111;48.286;7.812;2023-02-11T00:51:39;0.70;67.10
72206;DHT22;60111;48.286;7.812;2023-02-11T00:54:12;0.70;67.30
72206;DHT22;60111;48.286;7.812;2023-02-11T00:56:44;0.70;67.00
72206;DHT22;60111;48.286;7.812;2023-02-11T00:59:17;0.70;66.90
72206;DHT22;60111;48.286;7.812;2023-02-11T01:01:49;0.60;66.80
72206;DHT22;60111;48.286;7.812;2023-02-11T01:04:22;0.60;67.00
72206;DHT22;60111;48.286;7.812;2023-02-11T01:06:55;0.70;66.90
72206;DHT22;60111;48.286;7.812;2023-02-11T01:09:27;0.60;67.40
72206;DHT22;60111;48.286;7.812;2023-02-11T01:12:00;0.50;67.40
72206;DHT22;60111;48.286;7.812;2023-02-11T01:14:32;0.40;67.50
72206;DHT22;60111;48.286;7.812;2023-02-11T01:17:05;0.30;67.80
72206;DHT22;60111;48.286;7.812;2023-02-11T01:19:38;0.30;67.80
72206;DHT22;60111;48.286;7.812;2023-02-11T01:22:10;0.40;67.60
72206;DHT22;60111;48.286;7.812;2023-02-11T01:24:43;0.40;67.50
72206;DHT22;60111;48.286;7.812;2023-02-11T01:27:16;0.40;67.30
72206;DHT22;60111;48.286;7.812;2023-02-11T01:29:49;0.30;67.90
72206;DHT22;60111;48.286;7.812;2023-02-11T01:32:21;0.20;68.10
72206;DHT22;60111;48.286;7.812;2023-02-11T01:34:54;0.20;67.80
72206;DHT22;60111;48.286;7.812;2023-02-11T01:37:27;0.30;67.40
72206;DHT22;60111;48.286;7.812;2023-02-11T01:40:02;0.20;66.70
72206;DHT22;60111;48.286;7.812;2023-02-11T01:42:43;0.00;67.80
72206;DHT22;60111;48.286;7.812;2023-02-11T01:48:23;0.00;68.00
72206;DHT22;60111;48.286;7.812;2023-02-11T01:51:02;-0.10;68.10
72206;DHT22;60111;48.286;7.812;2023-02-11T01:53:36;0.00;68.40
72206;DHT22;60111;48.286;7.812;2023-02-11T01:56:28;0.10;68.20
72206;DHT22;60111;48.286;7.812;2023-02-11T01:59:23;0.10;68.20
72206;DHT22;60111;48.286;7.812;2023-02-11T02:01:59;0.10;67.60
72206;DHT22;60111;48.286;7.812;2023-02-11T02:04:34;0.10;67.90
72206;DHT22;60111;48.286;7.812;2023-02-11T02:07:10;0.10;67.50
72206;DHT22;60111;48.286;7.812;2023-02-11T02:10:04;0.10;67.10
72206;DHT22;60111;48.286;7.812;2023-02-11T02:12:37;0.10;67.30
72206;DHT22;60111;48.286;7.812;2023-02-11T02:15:28;0.00;67.10
72206;DHT22;60111;48.286;7.812;2023-02-11T02:18:18;-0.10;67.90
72206;DHT22;60111;48.286;7.812;2023-02-11T02:20:47;-0.10;68.00
72206;DHT22;60111;48.286;7.812;2023-02-11T02:26:32;0.10;68.00
72206;DHT22;60111;48.286;7.812;2023-02-11T02:29:13;0.10;67.10
72206;DHT22;60111;48.286;7.812;2023-02-11T02:37:31;0.30;68.00
72206;DHT22;60111;48.286;7.812;2023-02-11T02:40:08;0.20;67.90
72206;DHT22;60111;48.286;7.812;2023-02-11T02:42:41;0.20;68.20
72206;DHT22;60111;48.286;7.812;2023-02-11T02:45:16;0.20;68.00
72206;DHT22;60111;48.286;7.812;2023-02-11T02:47:49;0.30;67.90
72206;DHT22;60111;48.286;7.812;2023-02-11T02:50:24;0.40;66.60
72206;DHT22;60111;48.286;7.812;2023-02-11T02:53:25;0.30;67.10
72206;DHT22;60111;48.286;7.812;2023-02-11T02:55:57;0.30;67.30
72206;DHT22;60111;48.286;7.812;2023-02-11T02:58:42;0.10;68.60
72206;DHT22;60111;48.286;7.812;2023-02-11T03:01:25;-0.10;68.90
72206;DHT22;60111;48.286;7.812;2023-02-11T03:05:03;0.00;69.40
72206;DHT22;60111;48.286;7.812;2023-02-11T03:06:54;0.00;68.80
72206;DHT22;60111;48.286;7.812;2023-02-11T03:09:31;0.10;68.90
72206;DHT22;60111;48.286;7.812;2023-02-11T03:12:02;0.20;68.60
72206;DHT22;60111;48.286;7.812;2023-02-11T03:14:35;0.20;68.40
72206;DHT22;60111;48.286;7.812;2023-02-11T03:17:08;0.30;67.80
72206;DHT22;60111;48.286;7.812;2023-02-11T03:19:43;0.20;67.90
72206;DHT22;60111;48.286;7.812;2023-02-11T03:22:23;0.30;68.00
72206;DHT22;60111;48.286;7.812;2023-02-11T03:24:55;0.30;67.60
72206;DHT22;60111;48.286;7.812;2023-02-11T03:27:37;0.20;68.30
72206;DHT22;60111;48.286;7.812;2023-02-11T03:30:19;0.20;68.30
72206;DHT22;60111;48.286;7.812;2023-02-11T03:32:55;0.30;68.10
72206;DHT22;60111;48.286;7.812;2023-02-11T03:35:32;0.30;67.90
72206;DHT22;60111;48.286;7.812;2023-02-11T03:38:13;0.30;67.90
72206;DHT22;60111;48.286;7.812;2023-02-11T03:40:42;0.10;68.70
72206;DHT22;60111;48.286;7.812;2023-02-11T03:43:19;0.10;67.40
72206;DHT22;60111;48.286;7.812;2023-02-11T03:45:53;0.10;67.90
72206;DHT22;60111;48.286;7.812;2023-02-11T03:48:29;0.20;68.50
72206;DHT22;60111;48.286;7.812;2023-02-11T03:51:05;0.10;68.40
72206;DHT22;60111;48.286;7.812;2023-02-11T03:53:40;0.10;68.60
72206;DHT22;60111;48.286;7.812;2023-02-11T03:56:18;0.10;68.30
72206;DHT22;60111;48.286;7.812;2023-02-11T03:58:52;0.10;68.40
72206;DHT22;60111;48.286;7.812;2023-02-11T04:01:25;0.00;68.70
72206;DHT22;60111;48.286;7.812;2023-02-11T04:03:57;0.00;68.10
72206;DHT22;60111;48.286;7.812;2023-02-11T04:06:30;0.00;68.10
72206;DHT22;60111;48.286;7.812;2023-02-11T04:09:03;-0.10;68.90
72206;DHT22;60111;48.286;7.812;2023-02-11T04:11:35;-0.20;68.80
72206;DHT22;60111;48.286;7.812;2023-02-11T04:14:08;-0.20;68.30
72206;DHT22;60111;48.286;7.812;2023-02-11T04:16:41;-0.50;70.00
72206;DHT22;60111;48.286;7.812;2023-02-11T04:19:13;-0.50;69.80
72206;DHT22;60111;48.286;7.812;2023-02-11T04:21:46;-0.50;70.60
72206;DHT22;60111;48.286;7.812;2023-02-11T04:24:19;-0.40;69.90
72206;DHT22;60111;48.286;7.812;2023-02-11T04:26:51;-0.40;69.60
72206;DHT22;60111;48.286;7.812;2023-02-11T04:29:24;-0.40;68.80
72206;DHT22;60111;48.286;7.812;2023-02-11T04:31:56;-0.40;68.90
72206;DHT22;60111;48.286;7.812;2023-02-11T04:34:29;-0.50;69.10
72206;DHT22;60111;48.286;7.812;2023-02-11T04:37:02;-0.40;69.40
72206;DHT22;60111;48.286;7.812;2023-02-11T04:39:34;-0.40;69.60
72206;DHT22;60111;48.286;7.812;2023-02-11T04:42:07;-0.60;69.30
72206;DHT22;60111;48.286;7.812;2023-02-11T04:44:40;-0.70;70.50
72206;DHT22;60111;48.286;7.812;2023-02-11T04:47:12;-0.60;70.50
72206;DHT22;60111;48.286;7.812;2023-02-11T04:49:45;-0.60;70.20
72206;DHT22;60111;48.286;7.812;2023-02-11T04:52:18;-0.70;70.30
72206;DHT22;60111;48.286;7.812;2023-02-11T04:54:51;-0.60;70.60
72206;DHT22;60111;48.286;7.812;2023-02-11T04:57:23;-0.60;71.00
72206;DHT22;60111;48.286;7.812;2023-02-11T04:59:56;-0.60;71.10
72206;DHT22;60111;48.286;7.812;2023-02-11T05:02:28;-0.50;71.20
72206;DHT22;60111;48.286;7.812;2023-02-11T05:05:01;-0.40;70.90
72206;DHT22;60111;48.286;7.812;2023-02-11T05:07:34;-0.40;70.90
72206;DHT22;60111;48.286;7.812;2023-02-11T05:10:06;-0.30;71.00
72206;DHT22;60111;48.286;7.812;2023-02-11T05:12:39;-0.20;70.20
72206;DHT22;60111;48.286;7.812;2023-02-11T05:15:12;-0.10;70.50
72206;DHT22;60111;48.286;7.812;2023-02-11T05:17:45;-0.10;70.30
72206;DHT22;60111;48.286;7.812;2023-02-11T05:20:18;0.00;70.30
72206;DHT22;60111;48.286;7.812;2023-02-11T05:22:51;0.10;70.50
72206;DHT22;60111;48.286;7.812;2023-02-11T05:25:23;0.10;70.00
72206;DHT22;60111;48.286;7.812;2023-02-11T05:27:56;0.20;69.50
72206;DHT22;60111;48.286;7.812;2023-02-11T05:30:29;0.10;69.40
72206;DHT22;60111;48.286;7.812;2023-02-11T05:33:02;0.10;69.20
72206;DHT22;60111;48.286;7.812;2023-02-11T05:35:34;-0.10;69.80
72206;DHT22;60111;48.286;7.812;2023-02-11T05:38:07;-0.10;69.80
72206;DHT22;60111;48.286;7.812;2023-02-11T05:40:40;-0.20;71.00
72206;DHT22;60111;48.286;7.812;2023-02-11T05:43:12;-0.20;70.90
72206;DHT22;60111;48.286;7.812;2023-02-11T05:45:45;-0.20;71.30
72206;DHT22;60111;48.286;7.812;2023-02-11T05:48:18;-0.30;71.70
72206;DHT22;60111;48.286;7.812;2023-02-11T05:50:50;-0.30;71.90
72206;DHT22;60111;48.286;7.812;2023-02-11T05:53:23;-0.10;70.50
72206;DHT22;60111;48.286;7.812;2023-02-11T05:55:56;0.00;69.70
72206;DHT22;60111;48.286;7.812;2023-02-11T05:58:28;0.00;70.40
72206;DHT22;60111;48.286;7.812;2023-02-11T06:01:01;-0.10;70.50
72206;DHT22;60111;48.286;7.812;2023-02-11T06:03:33;-0.20;71.10
72206;DHT22;60111;48.286;7.812;2023-02-11T06:06:11;-0.10;71.00
72206;DHT22;60111;48.286;7.812;2023-02-11T06:08:43;-0.10;70.70
72206;DHT22;60111;48.286;7.812;2023-02-11T06:11:16;-0.10;70.80
72206;DHT22;60111;48.286;7.812;2023-02-11T06:13:50;-0.10;70.50
72206;DHT22;60111;48.286;7.812;2023-02-11T06:16:23;-0.30;70.90
72206;DHT22;60111;48.286;7.812;2023-02-11T06:18:55;-0.30;71.40
72206;DHT22;60111;48.286;7.812;2023-02-11T06:21:28;-0.30;71.30
72206;DHT22;60111;48.286;7.812;2023-02-11T06:24:00;-0.40;71.10
72206;DHT22;60111;48.286;7.812;2023-02-11T06:26:33;-0.30;71.10
72206;DHT22;60111;48.286;7.812;2023-02-11T06:29:06;-0.30;71.20
72206;DHT22;60111;48.286;7.812;2023-02-11T06:31:39;-0.30;71.20
72206;DHT22;60111;48.286;7.812;2023-02-11T06:34:11;-0.20;70.50
72206;DHT22;60111;48.286;7.812;2023-02-11T06:36:44;-0.50;70.40
72206;DHT22;60111;48.286;7.812;2023-02-11T06:39:16;-0.60;71.70
72206;DHT22;60111;48.286;7.812;2023-02-11T06:41:49;-0.70;71.80
72206;DHT22;60111;48.286;7.812;2023-02-11T06:44:22;-0.70;71.90
72206;DHT22;60111;48.286;7.812;2023-02-11T06:46:54;-0.60;71.90
72206;DHT22;60111;48.286;7.812;2023-02-11T06:49:27;-0.70;72.10
72206;DHT22;60111;48.286;7.812;2023-02-11T06:52:00;-0.60;72.10
72206;DHT22;60111;48.286;7.812;2023-02-11T06:54:32;-0.50;72.50
72206;DHT22;60111;48.286;7.812;2023-02-11T06:57:05;-0.40;72.20
72206;DHT22;60111;48.286;7.812;2023-02-11T06:59:37;-0.30;71.80
72206;DHT22;60111;48.286;7.812;2023-02-11T07:02:10;-0.10;71.40
72206;DHT22;60111;48.286;7.812;2023-02-11T07:04:43;0.00;70.80
72206;DHT22;60111;48.286;7.812;2023-02-11T07:07:16;0.10;70.30
72206;DHT22;60111;48.286;7.812;2023-02-11T07:09:48;0.10;70.60
72206;DHT22;60111;48.286;7.812;2023-02-11T07:12:21;0.10;70.30
72206;DHT22;60111;48.286;7.812;2023-02-11T07:14:55;0.20;70.10
72206;DHT22;60111;48.286;7.812;2023-02-11T07:17:28;0.20;70.50
72206;DHT22;60111;48.286;7.812;2023-02-11T07:20:01;0.20;70.90
72206;DHT22;60111;48.286;7.812;2023-02-11T07:22:33;0.30;70.60
72206;DHT22;60111;48.286;7.812;2023-02-11T07:25:06;0.40;70.40
72206;DHT22;60111;48.286;7.812;2023-02-11T07:27:39;0.40;70.50
72206;DHT22;60111;48.286;7.812;2023-02-11T07:30:12;0.40;71.00
72206;DHT22;60111;48.286;7.812;2023-02-11T07:32:45;0.40;70.90
72206;DHT22;60111;48.286;7.812;2023-02-11T07:35:17;0.50;70.90
72206;DHT22;60111;48.286;7.812;2023-02-11T07:37:50;0.50;70.80
72206;DHT22;60111;48.286;7.812;2023-02-11T07:40:23;0.60;70.50
72206;DHT22;60111;48.286;7.812;2023-02-11T07:42:55;0.70;69.70
72206;DHT22;60111;48.286;7.812;2023-02-11T07:45:28;0.70;69.80
72206;DHT22;60111;48.286;7.812;2023-02-11T07:48:01;0.70;70.00
72206;DHT22;60111;48.286;7.812;2023-02-11T07:50:33;0.70;69.30
72206;DHT22;60111;48.286;7.812;2023-02-11T07:53:06;0.70;69.20
72206;DHT22;60111;48.286;7.812;2023-02-11T07:55:38;0.60;69.60
72206;DHT22;60111;48.286;7.812;2023-02-11T07:58:11;0.60;70.50
72206;DHT22;60111;48.286;7.812;2023-02-11T08:00:43;0.50;70.50
72206;DHT22;60111;48.286;7.812;2023-02-11T08:03:16;0.50;70.80
72206;DHT22;60111;48.286;7.812;2023-02-11T08:05:49;0.50;70.40
72206;DHT22;60111;48.286;7.812;2023-02-11T08:08:22;0.50;70.90
72206;DHT22;60111;48.286;7.812;2023-02-11T08:10:54;0.60;70.80
72206;DHT22;60111;48.286;7.812;2023-02-11T08:13:27;0.50;70.70
72206;DHT22;60111;48.286;7.812;2023-02-11T08:15:59;0.60;70.50
72206;DHT22;60111;48.286;7.812;2023-02-11T08:18:33;0.70;69.90
72206;DHT22;60111;48.286;7.812;2023-02-11T08:21:07;0.70;70.10
72206;DHT22;60111;48.286;7.812;2023-02-11T08:23:42;0.80;69.20
72206;DHT22;60111;48.286;7.812;2023-02-11T08:26:23;0.90;69.40
72206;DHT22;60111;48.286;7.812;2023-02-11T08:28:53;1.00;69.60
72206;DHT22;60111;48.286;7.812;2023-02-11T08:31:37;0.80;71.20
72206;DHT22;60111;48.286;7.812;2023-02-11T08:34:11;0.90;71.60
72206;DHT22;60111;48.286;7.812;2023-02-11T08:36:47;0.90;72.40
72206;DHT22;60111;48.286;7.812;2023-02-11T08:39:21;1.00;72.10
72206;DHT22;60111;48.286;7.812;2023-02-11T08:41:54;1.10;71.80
72206;DHT22;60111;48.286;7.812;2023-02-11T08:44:27;1.30;71.00
72206;DHT22;60111;48.286;7.812;2023-02-11T08:47:00;1.40;70.30
72206;DHT22;60111;48.286;7.812;2023-02-11T08:49:33;1.60;69.90
72206;DHT22;60111;48.286;7.812;2023-02-11T08:52:05;1.60;69.50
72206;DHT22;60111;48.286;7.812;2023-02-11T08:54:38;1.90;69.00
72206;DHT22;60111;48.286;7.812;2023-02-11T08:57:10;2.10;67.70
72206;DHT22;60111;48.286;7.812;2023-02-11T08:59:44;2.20;67.30
72206;DHT22;60111;48.286;7.812;2023-02-11T09:02:16;2.30;66.40
72206;DHT22;60111;48.286;7.812;2023-02-11T09:04:49;2.30;66.80
72206;DHT22;60111;48.286;7.812;2023-02-11T09:07:22;2.40;66.60
72206;DHT22;60111;48.286;7.812;2023-02-11T09:09:54;2.40;66.40
72206;DHT22;60111;48.286;7.812;2023-02-11T09:12:27;2.40;66.70
72206;DHT22;60111;48.286;7.812;2023-02-11T09:14:59;2.50;66.90
72206;DHT22;60111;48.286;7.812;2023-02-11T09:17:32;2.80;65.90
72206;DHT22;60111;48.286;7.812;2023-02-11T09:20:05;3.00;64.60
72206;DHT22;60111;48.286;7.812;2023-02-11T09:22:38;3.30;64.40
72206;DHT22;60111;48.286;7.812;2023-02-11T09:25:10;3.50;62.40
72206;DHT22;60111;48.286;7.812;2023-02-11T09:27:44;3.60;61.60
72206;DHT22;60111;48.286;7.812;2023-02-11T09:30:16;3.80;60.40
72206;DHT22;60111;48.286;7.812;2023-02-11T09:32:49;4.00;60.50
72206;DHT22;60111;48.286;7.812;2023-02-11T09:35:21;4.80;59.30
72206;DHT22;60111;48.286;7.812;2023-02-11T09:37:55;6.30;55.10
72206;DHT22;60111;48.286;7.812;2023-02-11T09:40:27;7.70;51.60
72206;DHT22;60111;48.286;7.812;2023-02-11T09:43:10;8.90;48.00
72206;DHT22;60111;48.286;7.812;2023-02-11T09:45:45;10.20;45.20
72206;DHT22;60111;48.286;7.812;2023-02-11T09:48:19;11.60;42.20
72206;DHT22;60111;48.286;7.812;2023-02-11T09:50:55;12.30;39.70
72206;DHT22;60111;48.286;7.812;2023-02-11T09:53:37;13.60;37.60
72206;DHT22;60111;48.286;7.812;2023-02-11T09:56:12;14.90;35.80
72206;DHT22;60111;48.286;7.812;2023-02-11T09:58:45;16.40;33.60
72206;DHT22;60111;48.286;7.812;2023-02-11T10:01:38;16.90;33.90
72206;DHT22;60111;48.286;7.812;2023-02-11T10:04:32;16.90;32.90
72206;DHT22;60111;48.286;7.812;2023-02-11T10:07:10;15.60;33.50
72206;DHT22;60111;48.286;7.812;2023-02-11T10:09:48;13.70;35.50
72206;DHT22;60111;48.286;7.812;2023-02-11T10:15:46;12.00;39.10
72206;DHT22;60111;48.286;7.812;2023-02-11T10:24:18;10.60;43.20
72206;DHT22;60111;48.286;7.812;2023-02-11T10:26:51;10.30;43.20
72206;DHT22;60111;48.286;7.812;2023-02-11T10:29:32;9.90;43.20
72206;DHT22;60111;48.286;7.812;2023-02-11T10:32:06;9.70;43.50
72206;DHT22;60111;48.286;7.812;2023-02-11T10:34:40;9.90;43.70
72206;DHT22;60111;48.286;7.812;2023-02-11T10:37:14;9.90;43.10
72206;DHT22;60111;48.286;7.812;2023-02-11T10:39:46;9.80;42.10
72206;DHT22;60111;48.286;7.812;2023-02-11T10:42:19;9.60;43.20
72206;DHT22;60111;48.286;7.812;2023-02-11T10:44:57;9.60;44.70
72206;DHT22;60111;48.286;7.812;2023-02-11T10:47:35;9.60;43.70
72206;DHT22;60111;48.286;7.812;2023-02-11T10:50:27;9.60;43.30
72206;DHT22;60111;48.286;7.812;2023-02-11T10:53:17;9.60;43.70
72206;DHT22;60111;48.286;7.812;2023-02-11T10:55:55;9.70;43.30
72206;DHT22;60111;48.286;7.812;2023-02-11T10:58:32;9.70;43.60
72206;DHT22;60111;48.286;7.812;2023-02-11T11:01:04;9.70;44.30
72206;DHT22;60111;48.286;7.812;2023-02-11T11:03:44;10.00;44.20
72206;DHT22;60111;48.286;7.812;2023-02-11T11:06:15;10.10;43.90
72206;DHT22;60111;48.286;7.812;2023-02-11T11:08:50;10.30;43.20
72206;DHT22;60111;48.286;7.812;2023-02-11T11:11:25;10.40;43.20
72206;DHT22;60111;48.286;7.812;2023-02-11T11:13:59;10.50;42.40
72206;DHT22;60111;48.286;7.812;2023-02-11T11:16:35;10.40;42.60
72206;DHT22;60111;48.286;7.812;2023-02-11T11:21:52;10.70;42.40
72206;DHT22;60111;48.286;7.812;2023-02-11T11:27:02;10.60;42.20
72206;DHT22;60111;48.286;7.812;2023-02-11T11:29:46;10.40;42.50
72206;DHT22;60111;48.286;7.812;2023-02-11T11:32:30;10.50;41.90
72206;DHT22;60111;48.286;7.812;2023-02-11T11:35:07;10.50;41.50
72206;DHT22;60111;48.286;7.812;2023-02-11T11:37:41;10.40;42.40
72206;DHT22;60111;48.286;7.812;2023-02-11T11:40:23;10.30;43.10
72206;DHT22;60111;48.286;7.812;2023-02-11T11:43:05;10.30;42.10
72206;DHT22;60111;48.286;7.812;2023-02-11T11:45:51;10.10;41.40
72206;DHT22;60111;48.286;7.812;2023-02-11T11:48:20;9.70;41.40
72206;DHT22;60111;48.286;7.812;2023-02-11T11:51:04;9.80;42.10
72206;DHT22;60111;48.286;7.812;2023-02-11T11:56:21;9.70;41.90
72206;DHT22;60111;48.286;7.812;2023-02-11T11:58:54;9.70;41.30
72206;DHT22;60111;48.286;7.812;2023-02-11T12:07:47;9.80;41.90
72206;DHT22;60111;48.286;7.812;2023-02-11T12:10:53;10.00;41.70
72206;DHT22;60111;48.286;7.812;2023-02-11T12:13:40;10.00;41.20
72206;DHT22;60111;48.286;7.812;2023-02-11T12:16:26;9.80;42.00
72206;DHT22;60111;48.286;7.812;2023-02-11T12:27:56;9.80;43.30
72206;DHT22;60111;48.286;7.812;2023-02-11T12:30:51;9.90;42.60
72206;DHT22;60111;48.286;7.812;2023-02-11T12:42:02;10.20;42.50
72206;DHT22;60111;48.286;7.812;2023-02-11T12:48:03;10.40;42.40
72206;DHT22;60111;48.286;7.812;2023-02-11T12:50:55;10.30;42.90
72206;DHT22;60111;48.286;7.812;2023-02-11T12:56:23;10.40;44.00
72206;DHT22;60111;48.286;7.812;2023-02-11T12:58:58;10.40;44.50
72206;DHT22;60111;48.286;7.812;2023-02-11T13:01:39;10.40;44.40
72206;DHT22;60111;48.286;7.812;2023-02-11T13:04:36;10.30;44.60
72206;DHT22;60111;48.286;7.812;2023-02-11T13:06:56;10.30;44.50
72206;DHT22;60111;48.286;7.812;2023-02-11T13:09:44;10.40;44.60
72206;DHT22;60111;48.286;7.812;2023-02-11T13:12:17;10.30;44.90
72206;DHT22;60111;48.286;7.812;2023-02-11T13:15:12;10.40;45.10
72206;DHT22;60111;48.286;7.812;2023-02-11T13:17:59;10.40;45.00
72206;DHT22;60111;48.286;7.812;2023-02-11T13:20:41;10.40;45.40
72206;DHT22;60111;48.286;7.812;2023-02-11T13:28:59;10.50;44.50
72206;DHT22;60111;48.286;7.812;2023-02-11T13:31:25;10.50;45.10
72206;DHT22;60111;48.286;7.812;2023-02-11T13:33:59;10.50;44.70
72206;DHT22;60111;48.286;7.812;2023-02-11T13:36:33;10.50;45.00
72206;DHT22;60111;48.286;7.812;2023-02-11T13:39:05;10.50;44.90
72206;DHT22;60111;48.286;7.812;2023-02-11T13:41:39;10.50;45.30
72206;DHT22;60111;48.286;7.812;2023-02-11T13:44:18;10.40;46.00
72206;DHT22;60111;48.286;7.812;2023-02-11T13:47:05;10.50;45.90
72206;DHT22;60111;48.286;7.812;2023-02-11T13:49:40;10.40;46.30
72206;DHT22;60111;48.286;7.812;2023-02-11T13:55:06;10.40;46.90
72206;DHT22;60111;48.286;7.812;2023-02-11T13:57:37;10.40;46.70
72206;DHT22;60111;48.286;7.812;2023-02-11T14:00:42;10.30;47.40
72206;DHT22;60111;48.286;7.812;2023-02-11T14:06:11;10.30;48.00
72206;DHT22;60111;48.286;7.812;2023-02-11T14:11:52;10.20;48.90
72206;DHT22;60111;48.286;7.812;2023-02-11T14:14:29;10.10;48.80
72206;DHT22;60111;48.286;7.812;2023-02-11T14:19:48;10.10;49.20
72206;DHT22;60111;48.286;7.812;2023-02-11T14:22:29;10.10;49.60
72206;DHT22;60111;48.286;7.812;2023-02-11T14:25:11;10.10;49.90
72206;DHT22;60111;48.286;7.812;2023-02-11T14:28:35;10.10;49.40
72206;DHT22;60111;48.286;7.812;2023-02-11T14:30:37;10.00;49.60
72206;DHT22;60111;48.286;7.812;2023-02-11T14:33:17;10.00;49.90
72206;DHT22;60111;48.286;7.812;2023-02-11T14:36:01;10.00;49.90
72206;DHT22;60111;48.286;7.812;2023-02-11T14:41:30;9.90;50.80
72206;DHT22;60111;48.286;7.812;2023-02-11T14:44:18;9.90;51.10
72206;DHT22;60111;48.286;7.812;2023-02-11T14:46:51;9.90;50.80
72206;DHT22;60111;48.286;7.812;2023-02-11T14:49:26;9.90;49.90
72206;DHT22;60111;48.286;7.812;2023-02-11T14:52:15;9.90;50.30
72206;DHT22;60111;48.286;7.812;2023-02-11T14:54:37;9.80;50.90
72206;DHT22;60111;48.286;7.812;2023-02-11T14:57:16;9.80;51.90
72206;DHT22;60111;48.286;7.812;2023-02-11T14:59:57;9.80;53.20
72206;DHT22;60111;48.286;7.812;2023-02-11T15:02:36;9.80;53.40
72206;DHT22;60111;48.286;7.812;2023-02-11T15:05:24;9.80;53.30
72206;DHT22;60111;48.286;7.812;2023-02-11T15:07:59;9.70;53.40
72206;DHT22;60111;48.286;7.812;2023-02-11T15:10:35;9.60;53.40
72206;DHT22;60111;48.286;7.812;2023-02-11T15:13:18;9.60;54.10
72206;DHT22;60111;48.286;7.812;2023-02-11T15:15:56;9.60;53.60
72206;DHT22;60111;48.286;7.812;2023-02-11T15:18:30;9.60;53.80
72206;DHT22;60111;48.286;7.812;2023-02-11T15:21:01;9.60;53.90
72206;DHT22;60111;48.286;7.812;2023-02-11T15:23:34;9.50;54.00
72206;DHT22;60111;48.286;7.812;2023-02-11T15:26:12;9.50;53.50
72206;DHT22;60111;48.286;7.812;2023-02-11T15:28:46;9.50;53.60
72206;DHT22;60111;48.286;7.812;2023-02-11T15:31:23;9.40;53.80
72206;DHT22;60111;48.286;7.812;2023-02-11T15:33:58;9.30;53.80
72206;DHT22;60111;48.286;7.812;2023-02-11T15:36:32;9.30;53.90
72206;DHT22;60111;48.286;7.812;2023-02-11T15:39:18;9.30;54.20
72206;DHT22;60111;48.286;7.812;2023-02-11T15:41:51;9.20;54.30
72206;DHT22;60111;48.286;7.812;2023-02-11T15:44:31;9.10;54.70
72206;DHT22;60111;48.286;7.812;2023-02-11T15:47:08;9.10;54.80
72206;DHT22;60111;48.286;7.812;2023-02-11T15:49:42;9.00;55.40
72206;DHT22;60111;48.286;7.812;2023-02-11T15:52:21;8.90;55.60
72206;DHT22;60111;48.286;7.812;2023-02-11T15:54:52;8.90;56.00
72206;DHT22;60111;48.286;7.812;2023-02-11T15:57:25;8.80;56.20
72206;DHT22;60111;48.286;7.812;2023-02-11T15:59:58;8.80;56.50
72206;DHT22;60111;48.286;7.812;2023-02-11T16:02:34;8.70;56.80
72206;DHT22;60111;48.286;7.812;2023-02-11T16:05:27;8.70;57.20
72206;DHT22;60111;48.286;7.812;2023-02-11T16:07:57;8.60;57.60
72206;DHT22;60111;48.286;7.812;2023-02-11T16:10:32;8.50;57.80
72206;DHT22;60111;48.286;7.812;2023-02-11T16:15:47;8.40;58.40
72206;DHT22;60111;48.286;7.812;2023-02-11T16:20:58;8.30;58.80
72206;DHT22;60111;48.286;7.812;2023-02-11T16:23:33;8.30;59.00
72206;DHT22;60111;48.286;7.812;2023-02-11T16:26:18;8.20;59.20
72206;DHT22;60111;48.286;7.812;2023-02-11T16:29:10;8.20;59.50
72206;DHT22;60111;48.286;7.812;2023-02-11T16:31:45;8.10;59.60
72206;DHT22;60111;48.286;7.812;2023-02-11T16:34:20;8.00;59.80
72206;DHT22;60111;48.286;7.812;2023-02-11T16:36:53;8.00;60.10
72206;DHT22;60111;48.286;7.812;2023-02-11T16:39:26;7.90;60.50
72206;DHT22;60111;48.286;7.812;2023-02-11T16:41:59;7.80;60.80
72206;DHT22;60111;48.286;7.812;2023-02-11T16:44:32;7.70;61.00
72206;DHT22;60111;48.286;7.812;2023-02-11T16:47:09;7.70;61.00
72206;DHT22;60111;48.286;7.812;2023-02-11T16:49:41;7.60;61.60
72206;DHT22;60111;48.286;7.812;2023-02-11T16:52:15;7.50;61.70
72206;DHT22;60111;48.286;7.812;2023-02-11T16:54:49;7.50;62.10
72206;DHT22;60111;48.286;7.812;2023-02-11T16:57:23;7.40;62.20
72206;DHT22;60111;48.286;7.812;2023-02-11T16:59:56;7.30;62.60
72206;DHT22;60111;48.286;7.812;2023-02-11T17:02:33;7.20;62.80
72206;DHT22;60111;48.286;7.812;2023-02-11T17:05:14;7.20;63.00
72206;DHT22;60111;48.286;7.812;2023-02-11T17:07:41;7.10;63.10
72206;DHT22;60111;48.286;7.812;2023-02-11T17:10:16;7.00;63.40
72206;DHT22;60111;48.286;7.812;2023-02-11T17:12:53;6.90;63.50
72206;DHT22;60111;48.286;7.812;2023-02-11T17:15:30;6.80;64.00
72206;DHT22;60111;48.286;7.812;2023-02-11T17:18:03;6.80;64.20
72206;DHT22;60111;48.286;7.812;2023-02-11T17:20:37;6.70;64.50
72206;DHT22;60111;48.286;7.812;2023-02-11T17:23:16;6.60;64.60
72206;DHT22;60111;48.286;7.812;2023-02-11T17:25:57;6.60;64.90
72206;DHT22;60111;48.286;7.812;2023-02-11T17:28:31;6.40;65.30
72206;DHT22;60111;48.286;7.812;2023-02-11T17:31:09;6.40;65.40
72206;DHT22;60111;48.286;7.812;2023-02-11T17:33:43;6.30;65.90
72206;DHT22;60111;48.286;7.812;2023-02-11T17:36:17;6.30;65.90
72206;DHT22;60111;48.286;7.812;2023-02-11T17:38:54;6.30;65.80
72206;DHT22;60111;48.286;7.812;2023-02-11T17:41:28;6.20;65.80
72206;DHT22;60111;48.286;7.812;2023-02-11T17:44:14;6.20;65.90
72206;DHT22;60111;48.286;7.812;2023-02-11T17:46:47;6.10;65.90
72206;DHT22;60111;48.286;7.812;2023-02-11T17:49:23;6.00;66.20
72206;DHT22;60111;48.286;7.812;2023-02-11T17:52:02;5.90;66.40
72206;DHT22;60111;48.286;7.812;2023-02-11T17:54:40;5.90;66.60
72206;DHT22;60111;48.286;7.812;2023-02-11T18:00:18;5.90;66.70